sensor_id;sensor_type;location;lat;lon;timestamp;P1;durP1;ratioP1;P2;durP2;ratioP2
4971;SDS011;2501;51.214;6.768;2023-04-01T00:01:11;5.78;;;1.02;;
4971;SDS011;2501;51.214;6.768;2023-04-01T00:03:44;2.60;;;1.17;;
4971;SDS011;2501;51.214;6.768;2023-04-01T00:06:14;3.22;;;1.27;;
4971;SDS011;2501;51.214;6.768;2023-04-01T00:08:43;4.65;;;1.13;;
4971;SDS011;2501;51.214;6.768;2023-04-01T00:11:13;2.20;;;1.13;;
4971;SDS011;2501;51.214;6.768;2023-04-01T00:13:42;2.83;;;1.42;;
4971;SDS011;2501;51.214;6.768;2023-04-01T00:16:11;5.20;;;1.13;;
4971;SDS011;2501;51.214;6.768;2023-04-01T00:18:40;6.40;;;1.10;;
4971;SDS011;2501;51.214;6.768;2023-04-01T00:21:12;4.93;;;1.20;;
4971;SDS011;2501;51.214;6.768;2023-04-01T00:23:40;2.53;;;1.40;;
4971;SDS011;2501;51.214;6.768;2023-04-01T00:26:09;3.90;;;1.33;;
4971;SDS011;2501;51.214;6.768;2023-04-01T00:28:39;4.10;;;1.00;;
4971;SDS011;2501;51.214;6.768;2023-04-01T00:31:08;3.90;;;0.90;;
4971;SDS011;2501;51.214;6.768;2023-04-01T00:33:38;2.50;;;1.10;;
4971;SDS011;2501;51.214;6.768;2023-04-01T00:36:07;3.35;;;0.90;;
4971;SDS011;2501;51.214;6.768;2023-04-01T00:38:39;2.90;;;1.10;;
4971;SDS011;2501;51.214;6.768;2023-04-01T00:41:10;1.60;;;0.90;;
4971;SDS011;2501;51.214;6.768;2023-04-01T00:43:40;4.40;;;0.77;;
4971;SDS011;2501;51.214;6.768;2023-04-01T00:46:09;1.90;;;0.80;;
4971;SDS011;2501;51.214;6.768;2023-04-01T00:48:38;1.33;;;1.00;;
4971;SDS011;2501;51.214;6.768;2023-04-01T00:51:11;2.30;;;0.90;;
4971;SDS011;2501;51.214;6.768;2023-04-01T00:53:47;1.48;;;0.77;;
4971;SDS011;2501;51.214;6.768;2023-04-01T00:56:18;2.00;;;0.90;;
4971;SDS011;2501;51.214;6.768;2023-04-01T00:58:51;2.88;;;1.00;;
4971;SDS011;2501;51.214;6.768;2023-04-01T01:01:22;2.88;;;1.10;;
4971;SDS011;2501;51.214;6.768;2023-04-01T01:03:52;1.30;;;0.90;;
4971;SDS011;2501;51.214;6.768;2023-04-01T01:06:23;0.90;;;0.70;;
4971;SDS011;2501;51.214;6.768;2023-04-01T01:09:13;2.80;;;0.90;;
4971;SDS011;2501;51.214;6.768;2023-04-01T01:11:50;1.50;;;0.90;;
4971;SDS011;2501;51.214;6.768;2023-04-01T01:14:25;3.95;;;1.00;;
4971;SDS011;2501;51.214;6.768;2023-04-01T01:17:04;1.60;;;0.63;;
4971;SDS011;2501;51.214;6.768;2023-04-01T01:19:48;1.55;;;0.82;;
4971;SDS011;2501;51.214;6.768;2023-04-01T01:22:36;2.42;;;1.00;;
4971;SDS011;2501;51.214;6.768;2023-04-01T01:25:28;3.35;;;0.90;;
4971;SDS011;2501;51.214;6.768;2023-04-01T01:28:09;0.90;;;0.80;;
4971;SDS011;2501;51.214;6.768;2023-04-01T01:30:51;1.33;;;0.63;;
4971;SDS011;2501;51.214;6.768;2023-04-01T01:33:35;1.80;;;1.10;;
4971;SDS011;2501;51.214;6.768;2023-04-01T01:36:18;2.42;;;0.90;;
4971;SDS011;2501;51.214;6.768;2023-04-01T01:38:48;3.20;;;1.03;;
4971;SDS011;2501;51.214;6.768;2023-04-01T01:41:19;2.70;;;1.10;;
4971;SDS011;2501;51.214;6.768;2023-04-01T01:43:51;4.50;;;0.90;;
4971;SDS011;2501;51.214;6.768;2023-04-01T01:46:22;1.98;;;0.85;;
4971;SDS011;2501;51.214;6.768;2023-04-01T01:48:53;1.65;;;0.80;;
4971;SDS011;2501;51.214;6.768;2023-04-01T01:51:26;2.10;;;0.90;;
4971;SDS011;2501;51.214;6.768;2023-04-01T01:53:55;1.00;;;0.70;;
4971;SDS011;2501;51.214;6.768;2023-04-01T01:56:24;1.65;;;1.00;;
4971;SDS011;2501;51.214;6.768;2023-04-01T01:58:56;3.20;;;0.70;;
4971;SDS011;2501;51.214;6.768;2023-04-01T02:01:29;1.90;;;0.70;;
4971;SDS011;2501;51.214;6.768;2023-04-01T02:04:01;0.85;;;0.80;;
4971;SDS011;2501;51.214;6.768;2023-04-01T02:06:34;2.60;;;0.70;;
4971;SDS011;2501;51.214;6.768;2023-04-01T02:09:06;2.40;;;1.00;;
4971;SDS011;2501;51.214;6.768;2023-04-01T02:11:39;1.70;;;0.93;;
4971;SDS011;2501;51.214;6.768;2023-04-01T02:14:13;2.72;;;0.70;;
4971;SDS011;2501;51.214;6.768;2023-04-01T02:16:44;2.13;;;0.80;;
4971;SDS011;2501;51.214;6.768;2023-04-01T02:19:18;1.38;;;0.80;;
4971;SDS011;2501;51.214;6.768;2023-04-01T02:21:51;2.80;;;0.60;;
4971;SDS011;2501;51.214;6.768;2023-04-01T02:24:23;4.00;;;1.00;;
4971;SDS011;2501;51.214;6.768;2023-04-01T02:26:54;1.20;;;0.65;;
4971;SDS011;2501;51.214;6.768;2023-04-01T02:29:23;0.80;;;0.70;;
4971;SDS011;2501;51.214;6.768;2023-04-01T02:31:53;2.60;;;1.20;;
4971;SDS011;2501;51.214;6.768;2023-04-01T02:34:22;3.30;;;1.10;;
4971;SDS011;2501;51.214;6.768;2023-04-01T02:36:55;2.60;;;0.98;;
4971;SDS011;2501;51.214;6.768;2023-04-01T02:39:24;1.95;;;0.60;;
4971;SDS011;2501;51.214;6.768;2023-04-01T02:41:53;1.90;;;0.80;;
4971;SDS011;2501;51.214;6.768;2023-04-01T02:44:21;1.33;;;0.90;;
4971;SDS011;2501;51.214;6.768;2023-04-01T02:46:50;3.50;;;1.02;;
4971;SDS011;2501;51.214;6.768;2023-04-01T02:49:18;5.30;;;0.70;;
4971;SDS011;2501;51.214;6.768;2023-04-01T02:51:47;3.88;;;0.80;;
4971;SDS011;2501;51.214;6.768;2023-04-01T02:54:19;1.42;;;0.60;;
4971;SDS011;2501;51.214;6.768;2023-04-01T02:56:47;4.30;;;0.90;;
4971;SDS011;2501;51.214;6.768;2023-04-01T02:59:16;1.20;;;0.57;;
4971;SDS011;2501;51.214;6.768;2023-04-01T03:01:44;2.30;;;0.70;;
4971;SDS011;2501;51.214;6.768;2023-04-01T03:04:13;1.17;;;0.70;;
4971;SDS011;2501;51.214;6.768;2023-04-01T03:06:41;1.65;;;0.82;;
4971;SDS011;2501;51.214;6.768;2023-04-01T03:09:10;2.30;;;0.60;;
4971;SDS011;2501;51.214;6.768;2023-04-01T03:11:41;1.10;;;0.80;;
4971;SDS011;2501;51.214;6.768;2023-04-01T03:14:10;1.25;;;0.50;;
4971;SDS011;2501;51.214;6.768;2023-04-01T03:16:38;0.80;;;0.60;;
4971;SDS011;2501;51.214;6.768;2023-04-01T03:19:07;1.45;;;0.60;;
4971;SDS011;2501;51.214;6.768;2023-04-01T03:21:35;0.70;;;0.50;;
4971;SDS011;2501;51.214;6.768;2023-04-01T03:24:04;1.40;;;0.60;;
4971;SDS011;2501;51.214;6.768;2023-04-01T03:26:33;2.40;;;0.70;;
4971;SDS011;2501;51.214;6.768;2023-04-01T03:29:04;2.17;;;0.80;;
4971;SDS011;2501;51.214;6.768;2023-04-01T03:31:32;1.42;;;0.60;;
4971;SDS011;2501;51.214;6.768;2023-04-01T03:34:00;1.70;;;0.60;;
4971;SDS011;2501;51.214;6.768;2023-04-01T03:36:29;1.20;;;0.60;;
4971;SDS011;2501;51.214;6.768;2023-04-01T03:38:57;2.05;;;0.80;;
4971;SDS011;2501;51.214;6.768;2023-04-01T03:41:26;0.80;;;0.52;;
4971;SDS011;2501;51.214;6.768;2023-04-01T03:43:54;2.30;;;0.50;;
4971;SDS011;2501;51.214;6.768;2023-04-01T03:46:25;0.98;;;0.50;;
4971;SDS011;2501;51.214;6.768;2023-04-01T03:48:53;0.60;;;0.50;;
4971;SDS011;2501;51.214;6.768;2023-04-01T03:51:22;0.90;;;0.70;;
4971;SDS011;2501;51.214;6.768;2023-04-01T03:53:50;2.53;;;0.93;;
4971;SDS011;2501;51.214;6.768;2023-04-01T03:56:19;1.20;;;0.80;;
4971;SDS011;2501;51.214;6.768;2023-04-01T03:58:47;0.60;;;0.50;;
4971;SDS011;2501;51.214;6.768;2023-04-01T04:01:16;2.20;;;0.60;;
4971;SDS011;2501;51.214;6.768;2023-04-01T04:03:49;1.40;;;0.70;;
4971;SDS011;2501;51.214;6.768;2023-04-01T04:06:18;0.97;;;0.60;;
4971;SDS011;2501;51.214;6.768;2023-04-01T04:08:47;1.60;;;0.70;;
4971;SDS011;2501;51.214;6.768;2023-04-01T04:11:16;2.10;;;0.70;;
4971;SDS011;2501;51.214;6.768;2023-04-01T04:13:46;2.20;;;0.70;;
4971;SDS011;2501;51.214;6.768;2023-04-01T04:16:16;0.90;;;0.60;;
4971;SDS011;2501;51.214;6.768;2023-04-01T04:18:44;2.67;;;0.80;;
4971;SDS011;2501;51.214;6.768;2023-04-01T04:21:15;1.05;;;0.65;;
4971;SDS011;2501;51.214;6.768;2023-04-01T04:23:47;1.60;;;0.60;;
4971;SDS011;2501;51.214;6.768;2023-04-01T04:26:15;1.10;;;0.80;;
4971;SDS011;2501;51.214;6.768;2023-04-01T04:28:44;0.90;;;0.80;;
4971;SDS011;2501;51.214;6.768;2023-04-01T04:31:17;1.13;;;0.60;;
4971;SDS011;2501;51.214;6.768;2023-04-01T04:33:47;2.08;;;0.85;;
4971;SDS011;2501;51.214;6.768;2023-04-01T04:36:19;1.10;;;0.90;;
4971;SDS011;2501;51.214;6.768;2023-04-01T04:38:48;3.70;;;0.80;;
4971;SDS011;2501;51.214;6.768;2023-04-01T04:41:17;0.70;;;0.70;;
4971;SDS011;2501;51.214;6.768;2023-04-01T04:43:50;1.15;;;1.05;;
4971;SDS011;2501;51.214;6.768;2023-04-01T04:46:20;1.27;;;0.80;;
4971;SDS011;2501;51.214;6.768;2023-04-01T04:48:49;0.90;;;0.60;;
4971;SDS011;2501;51.214;6.768;2023-04-01T04:51:21;1.30;;;0.80;;
4971;SDS011;2501;51.214;6.768;2023-04-01T04:53:50;2.10;;;1.00;;
4971;SDS011;2501;51.214;6.768;2023-04-01T04:56:18;1.88;;;0.60;;
4971;SDS011;2501;51.214;6.768;2023-04-01T04:58:47;1.50;;;1.30;;
4971;SDS011;2501;51.214;6.768;2023-04-01T05:01:16;1.30;;;1.20;;
4971;SDS011;2501;51.214;6.768;2023-04-01T05:03:45;1.92;;;1.48;;
4971;SDS011;2501;51.214;6.768;2023-04-01T05:06:14;2.00;;;1.20;;
4971;SDS011;2501;51.214;6.768;2023-04-01T05:08:45;1.90;;;1.00;;
4971;SDS011;2501;51.214;6.768;2023-04-01T05:11:15;3.87;;;0.93;;
4971;SDS011;2501;51.214;6.768;2023-04-01T05:13:45;1.10;;;1.00;;
4971;SDS011;2501;51.214;6.768;2023-04-01T05:16:16;2.45;;;1.00;;
4971;SDS011;2501;51.214;6.768;2023-04-01T05:18:49;4.43;;;1.00;;
4971;SDS011;2501;51.214;6.768;2023-04-01T05:21:17;1.20;;;0.95;;
4971;SDS011;2501;51.214;6.768;2023-04-01T05:23:48;4.30;;;1.40;;
4971;SDS011;2501;51.214;6.768;2023-04-01T05:26:17;2.23;;;0.90;;
4971;SDS011;2501;51.214;6.768;2023-04-01T05:28:45;1.80;;;1.00;;
4971;SDS011;2501;51.214;6.768;2023-04-01T05:31:13;1.40;;;1.30;;
4971;SDS011;2501;51.214;6.768;2023-04-01T05:33:42;1.60;;;1.40;;
4971;SDS011;2501;51.214;6.768;2023-04-01T05:36:11;1.50;;;1.40;;
4971;SDS011;2501;51.214;6.768;2023-04-01T05:38:41;1.30;;;1.20;;
4971;SDS011;2501;51.214;6.768;2023-04-01T05:41:13;2.67;;;1.48;;
4971;SDS011;2501;51.214;6.768;2023-04-01T05:43:42;1.65;;;1.40;;
4971;SDS011;2501;51.214;6.768;2023-04-01T05:46:11;1.30;;;1.30;;
4971;SDS011;2501;51.214;6.768;2023-04-01T05:48:39;2.40;;;1.50;;
4971;SDS011;2501;51.214;6.768;2023-04-01T05:51:11;1.45;;;1.40;;
4971;SDS011;2501;51.214;6.768;2023-04-01T05:53:40;2.83;;;1.65;;
4971;SDS011;2501;51.214;6.768;2023-04-01T05:56:09;2.40;;;2.08;;
4971;SDS011;2501;51.214;6.768;2023-04-01T05:58:40;1.70;;;1.60;;
4971;SDS011;2501;51.214;6.768;2023-04-01T06:01:09;2.58;;;2.00;;
4971;SDS011;2501;51.214;6.768;2023-04-01T06:03:39;2.72;;;2.17;;
4971;SDS011;2501;51.214;6.768;2023-04-01T06:06:10;2.30;;;2.10;;
4971;SDS011;2501;51.214;6.768;2023-04-01T06:08:42;2.50;;;2.30;;
4971;SDS011;2501;51.214;6.768;2023-04-01T06:11:15;2.70;;;2.40;;
4971;SDS011;2501;51.214;6.768;2023-04-01T06:13:57;2.60;;;2.40;;
4971;SDS011;2501;51.214;6.768;2023-04-01T06:16:38;3.03;;;2.60;;
4971;SDS011;2501;51.214;6.768;2023-04-01T06:19:20;6.10;;;2.90;;
4971;SDS011;2501;51.214;6.768;2023-04-01T06:22:05;3.67;;;3.00;;
4971;SDS011;2501;51.214;6.768;2023-04-01T06:24:48;2.90;;;2.80;;
4971;SDS011;2501;51.214;6.768;2023-04-01T06:27:35;3.33;;;2.60;;
4971;SDS011;2501;51.214;6.768;2023-04-01T06:30:29;3.28;;;2.00;;
4971;SDS011;2501;51.214;6.768;2023-04-01T06:33:06;3.05;;;2.85;;
4971;SDS011;2501;51.214;6.768;2023-04-01T06:35:58;3.45;;;2.55;;
4971;SDS011;2501;51.214;6.768;2023-04-01T06:41:56;3.50;;;3.20;;
4971;SDS011;2501;51.214;6.768;2023-04-01T06:44:44;2.70;;;2.50;;
4971;SDS011;2501;51.214;6.768;2023-04-01T06:47:26;3.10;;;2.80;;
4971;SDS011;2501;51.214;6.768;2023-04-01T06:50:08;5.00;;;1.90;;
4971;SDS011;2501;51.214;6.768;2023-04-01T06:52:46;2.35;;;2.15;;
4971;SDS011;2501;51.214;6.768;2023-04-01T06:55:24;3.40;;;1.85;;
4971;SDS011;2501;51.214;6.768;2023-04-01T06:57:58;4.20;;;2.40;;
4971;SDS011;2501;51.214;6.768;2023-04-01T07:00:29;2.37;;;2.20;;
4971;SDS011;2501;51.214;6.768;2023-04-01T07:03:05;2.00;;;1.90;;
4971;SDS011;2501;51.214;6.768;2023-04-01T07:05:42;2.28;;;2.17;;
4971;SDS011;2501;51.214;6.768;2023-04-01T07:08:12;3.47;;;1.90;;
4971;SDS011;2501;51.214;6.768;2023-04-01T07:10:45;3.30;;;2.10;;
4971;SDS011;2501;51.214;6.768;2023-04-01T07:13:19;1.90;;;1.80;;
4971;SDS011;2501;51.214;6.768;2023-04-01T07:15:55;3.58;;;2.10;;
4971;SDS011;2501;51.214;6.768;2023-04-01T07:18:36;3.70;;;2.93;;
4971;SDS011;2501;51.214;6.768;2023-04-01T07:21:09;2.10;;;2.00;;
4971;SDS011;2501;51.214;6.768;2023-04-01T07:23:44;1.88;;;1.77;;
4971;SDS011;2501;51.214;6.768;2023-04-01T07:26:15;1.90;;;1.80;;
4971;SDS011;2501;51.214;6.768;2023-04-01T07:28:46;1.70;;;1.60;;
4971;SDS011;2501;51.214;6.768;2023-04-01T07:31:18;2.70;;;1.80;;
4971;SDS011;2501;51.214;6.768;2023-04-01T07:33:58;2.00;;;1.90;;
4971;SDS011;2501;51.214;6.768;2023-04-01T07:36:36;1.58;;;1.50;;
4971;SDS011;2501;51.214;6.768;2023-04-01T07:39:13;2.15;;;1.88;;
4971;SDS011;2501;51.214;6.768;2023-04-01T07:41:54;3.00;;;1.70;;
4971;SDS011;2501;51.214;6.768;2023-04-01T07:44:31;2.90;;;2.00;;
4971;SDS011;2501;51.214;6.768;2023-04-01T07:47:23;1.70;;;1.60;;
4971;SDS011;2501;51.214;6.768;2023-04-01T07:50:08;2.05;;;1.90;;
4971;SDS011;2501;51.214;6.768;2023-04-01T07:52:42;2.28;;;2.15;;
4971;SDS011;2501;51.214;6.768;2023-04-01T07:55:18;2.20;;;1.90;;
4971;SDS011;2501;51.214;6.768;2023-04-01T07:57:51;2.53;;;1.90;;
4971;SDS011;2501;51.214;6.768;2023-04-01T08:00:30;1.80;;;1.70;;
4971;SDS011;2501;51.214;6.768;2023-04-01T08:03:09;2.00;;;1.90;;
4971;SDS011;2501;51.214;6.768;2023-04-01T08:05:49;2.30;;;1.65;;
4971;SDS011;2501;51.214;6.768;2023-04-01T08:08:27;3.10;;;1.90;;
4971;SDS011;2501;51.214;6.768;2023-04-01T08:11:13;1.83;;;1.75;;
4971;SDS011;2501;51.214;6.768;2023-04-01T08:13:51;1.77;;;1.63;;
4971;SDS011;2501;51.214;6.768;2023-04-01T08:16:27;1.50;;;1.50;;
4971;SDS011;2501;51.214;6.768;2023-04-01T08:19:04;1.75;;;1.65;;
4971;SDS011;2501;51.214;6.768;2023-04-01T08:21:45;1.73;;;1.63;;
4971;SDS011;2501;51.214;6.768;2023-04-01T08:24:17;1.90;;;1.80;;
4971;SDS011;2501;51.214;6.768;2023-04-01T08:26:56;1.80;;;1.70;;
4971;SDS011;2501;51.214;6.768;2023-04-01T08:29:30;1.70;;;1.60;;
4971;SDS011;2501;51.214;6.768;2023-04-01T08:32:06;1.40;;;1.40;;
4971;SDS011;2501;51.214;6.768;2023-04-01T08:34:40;1.80;;;1.70;;
4971;SDS011;2501;51.214;6.768;2023-04-01T08:37:17;1.98;;;1.77;;
4971;SDS011;2501;51.214;6.768;2023-04-01T08:39:50;2.30;;;1.80;;
4971;SDS011;2501;51.214;6.768;2023-04-01T08:45:21;2.10;;;2.00;;
4971;SDS011;2501;51.214;6.768;2023-04-01T08:51:18;8.10;;;7.30;;
4971;SDS011;2501;51.214;6.768;2023-04-01T08:54:12;7.00;;;6.30;;
4971;SDS011;2501;51.214;6.768;2023-04-01T08:56:56;5.50;;;5.10;;
4971;SDS011;2501;51.214;6.768;2023-04-01T09:05:24;8.38;;;7.57;;
4971;SDS011;2501;51.214;6.768;2023-04-01T09:08:05;9.93;;;8.85;;
4971;SDS011;2501;51.214;6.768;2023-04-01T09:19:41;13.35;;;10.95;;
4971;SDS011;2501;51.214;6.768;2023-04-01T09:22:26;10.55;;;9.02;;
4971;SDS011;2501;51.214;6.768;2023-04-01T09:25:22;13.15;;;11.57;;
4971;SDS011;2501;51.214;6.768;2023-04-01T09:28:05;16.15;;;14.45;;
4971;SDS011;2501;51.214;6.768;2023-04-01T09:36:37;8.47;;;7.70;;
4971;SDS011;2501;51.214;6.768;2023-04-01T09:42:21;11.52;;;9.80;;
4971;SDS011;2501;51.214;6.768;2023-04-01T09:45:04;12.02;;;10.57;;
4971;SDS011;2501;51.214;6.768;2023-04-01T09:47:50;17.70;;;14.90;;
4971;SDS011;2501;51.214;6.768;2023-04-01T09:50:34;28.42;;;18.50;;
4971;SDS011;2501;51.214;6.768;2023-04-01T09:53:13;21.90;;;16.47;;
4971;SDS011;2501;51.214;6.768;2023-04-01T09:56:00;24.98;;;17.77;;
4971;SDS011;2501;51.214;6.768;2023-04-01T10:01:48;25.50;;;18.35;;
4971;SDS011;2501;51.214;6.768;2023-04-01T10:20:12;7.90;;;7.20;;
4971;SDS011;2501;51.214;6.768;2023-04-01T10:23:02;10.23;;;9.13;;
4971;SDS011;2501;51.214;6.768;2023-04-01T10:29:07;10.43;;;8.90;;
4971;SDS011;2501;51.214;6.768;2023-04-01T10:32:11;9.05;;;8.25;;
4971;SDS011;2501;51.214;6.768;2023-04-01T10:41:41;11.35;;;10.15;;
4971;SDS011;2501;51.214;6.768;2023-04-01T10:44:34;5.10;;;4.60;;
4971;SDS011;2501;51.214;6.768;2023-04-01T10:47:41;3.90;;;3.70;;
4971;SDS011;2501;51.214;6.768;2023-04-01T10:56:44;3.88;;;3.65;;
4971;SDS011;2501;51.214;6.768;2023-04-01T11:02:29;4.10;;;3.80;;
4971;SDS011;2501;51.214;6.768;2023-04-01T11:08:29;6.18;;;5.70;;
4971;SDS011;2501;51.214;6.768;2023-04-01T11:11:23;9.40;;;7.65;;
4971;SDS011;2501;51.214;6.768;2023-04-01T11:14:25;7.97;;;7.20;;
4971;SDS011;2501;51.214;6.768;2023-04-01T11:17:22;6.63;;;6.13;;
4971;SDS011;2501;51.214;6.768;2023-04-01T11:23:21;11.15;;;9.90;;
4971;SDS011;2501;51.214;6.768;2023-04-01T11:25:57;12.45;;;10.40;;
4971;SDS011;2501;51.214;6.768;2023-04-01T11:28:48;12.90;;;11.13;;
4971;SDS011;2501;51.214;6.768;2023-04-01T11:31:36;14.90;;;10.73;;
4971;SDS011;2501;51.214;6.768;2023-04-01T11:34:28;14.48;;;11.68;;
4971;SDS011;2501;51.214;6.768;2023-04-01T11:37:14;14.45;;;10.77;;
4971;SDS011;2501;51.214;6.768;2023-04-01T11:39:57;16.35;;;12.98;;
4971;SDS011;2501;51.214;6.768;2023-04-01T11:42:36;15.23;;;12.02;;
4971;SDS011;2501;51.214;6.768;2023-04-01T11:45:13;10.95;;;9.25;;
4971;SDS011;2501;51.214;6.768;2023-04-01T11:47:55;10.35;;;8.02;;
4971;SDS011;2501;51.214;6.768;2023-04-01T11:50:38;9.88;;;8.68;;
4971;SDS011;2501;51.214;6.768;2023-04-01T11:53:26;11.35;;;9.90;;
4971;SDS011;2501;51.214;6.768;2023-04-01T11:56:02;8.20;;;7.40;;
4971;SDS011;2501;51.214;6.768;2023-04-01T12:01:43;9.27;;;8.15;;
4971;SDS011;2501;51.214;6.768;2023-04-01T12:04:27;11.90;;;9.33;;
4971;SDS011;2501;51.214;6.768;2023-04-01T12:07:14;13.23;;;10.60;;
4971;SDS011;2501;51.214;6.768;2023-04-01T12:09:51;12.35;;;11.05;;
4971;SDS011;2501;51.214;6.768;2023-04-01T12:12:31;15.90;;;12.10;;
4971;SDS011;2501;51.214;6.768;2023-04-01T12:15:14;12.10;;;10.80;;
4971;SDS011;2501;51.214;6.768;2023-04-01T12:17:50;13.23;;;11.80;;
4971;SDS011;2501;51.214;6.768;2023-04-01T12:20:30;14.65;;;11.90;;
4971;SDS011;2501;51.214;6.768;2023-04-01T12:23:09;20.20;;;15.40;;
4971;SDS011;2501;51.214;6.768;2023-04-01T12:25:54;14.02;;;11.50;;
4971;SDS011;2501;51.214;6.768;2023-04-01T12:28:37;11.25;;;10.05;;
4971;SDS011;2501;51.214;6.768;2023-04-01T12:31:17;16.40;;;11.32;;
4971;SDS011;2501;51.214;6.768;2023-04-01T12:34:00;21.30;;;15.30;;
4971;SDS011;2501;51.214;6.768;2023-04-01T12:37:08;17.27;;;13.65;;
4971;SDS011;2501;51.214;6.768;2023-04-01T12:39:55;19.50;;;12.83;;
4971;SDS011;2501;51.214;6.768;2023-04-01T12:42:40;12.27;;;11.07;;
4971;SDS011;2501;51.214;6.768;2023-04-01T12:45:30;18.45;;;11.85;;
4971;SDS011;2501;51.214;6.768;2023-04-01T12:48:13;13.70;;;12.00;;
4971;SDS011;2501;51.214;6.768;2023-04-01T12:57:03;22.77;;;17.80;;
4971;SDS011;2501;51.214;6.768;2023-04-01T12:59:47;20.33;;;16.85;;
4971;SDS011;2501;51.214;6.768;2023-04-01T13:02:32;20.63;;;16.45;;
4971;SDS011;2501;51.214;6.768;2023-04-01T13:08:17;15.40;;;13.00;;
4971;SDS011;2501;51.214;6.768;2023-04-01T13:11:13;13.60;;;12.20;;
4971;SDS011;2501;51.214;6.768;2023-04-01T13:13:48;14.63;;;13.00;;
4971;SDS011;2501;51.214;6.768;2023-04-01T13:16:37;13.40;;;12.05;;
4971;SDS011;2501;51.214;6.768;2023-04-01T13:19:09;15.40;;;12.93;;
4971;SDS011;2501;51.214;6.768;2023-04-01T13:21:49;10.50;;;9.50;;
4971;SDS011;2501;51.214;6.768;2023-04-01T13:24:31;14.85;;;13.20;;
4971;SDS011;2501;51.214;6.768;2023-04-01T13:27:12;13.68;;;10.93;;
4971;SDS011;2501;51.214;6.768;2023-04-01T13:29:57;16.17;;;13.35;;
4971;SDS011;2501;51.214;6.768;2023-04-01T13:32:36;13.15;;;11.38;;
4971;SDS011;2501;51.214;6.768;2023-04-01T13:35:20;13.93;;;10.67;;
4971;SDS011;2501;51.214;6.768;2023-04-01T13:37:58;13.63;;;12.32;;
4971;SDS011;2501;51.214;6.768;2023-04-01T13:40:42;9.85;;;8.85;;
4971;SDS011;2501;51.214;6.768;2023-04-01T13:43:20;11.20;;;10.10;;
4971;SDS011;2501;51.214;6.768;2023-04-01T13:51:52;12.27;;;10.98;;
4971;SDS011;2501;51.214;6.768;2023-04-01T13:54:57;11.15;;;9.77;;
4971;SDS011;2501;51.214;6.768;2023-04-01T13:57:49;11.07;;;9.93;;
4971;SDS011;2501;51.214;6.768;2023-04-01T14:00:32;9.85;;;8.70;;
4971;SDS011;2501;51.214;6.768;2023-04-01T14:03:26;6.63;;;6.13;;
4971;SDS011;2501;51.214;6.768;2023-04-01T14:06:01;7.10;;;6.50;;
4971;SDS011;2501;51.214;6.768;2023-04-01T14:08:42;4.90;;;4.50;;
4971;SDS011;2501;51.214;6.768;2023-04-01T14:11:22;4.30;;;4.00;;
4971;SDS011;2501;51.214;6.768;2023-04-01T14:13:56;6.20;;;5.70;;
4971;SDS011;2501;51.214;6.768;2023-04-01T14:19:40;11.50;;;10.30;;
4971;SDS011;2501;51.214;6.768;2023-04-01T14:22:23;12.00;;;10.80;;
4971;SDS011;2501;51.214;6.768;2023-04-01T14:25:04;10.52;;;9.43;;
4971;SDS011;2501;51.214;6.768;2023-04-01T14:27:53;15.90;;;13.85;;
4971;SDS011;2501;51.214;6.768;2023-04-01T14:30:40;11.48;;;8.23;;
4971;SDS011;2501;51.214;6.768;2023-04-01T14:33:28;7.28;;;6.70;;
4971;SDS011;2501;51.214;6.768;2023-04-01T14:36:18;6.90;;;6.30;;
4971;SDS011;2501;51.214;6.768;2023-04-01T14:42:17;7.03;;;6.03;;
4971;SDS011;2501;51.214;6.768;2023-04-01T14:45:02;5.20;;;4.80;;
4971;SDS011;2501;51.214;6.768;2023-04-01T14:47:46;4.85;;;4.43;;
4971;SDS011;2501;51.214;6.768;2023-04-01T14:50:23;5.63;;;5.10;;
4971;SDS011;2501;51.214;6.768;2023-04-01T14:52:57;7.03;;;6.53;;
4971;SDS011;2501;51.214;6.768;2023-04-01T14:55:42;7.10;;;6.50;;
4971;SDS011;2501;51.214;6.768;2023-04-01T14:58:21;9.67;;;8.67;;
4971;SDS011;2501;51.214;6.768;2023-04-01T15:00:57;9.45;;;7.15;;
4971;SDS011;2501;51.214;6.768;2023-04-01T15:03:36;6.90;;;6.40;;
4971;SDS011;2501;51.214;6.768;2023-04-01T15:06:25;5.40;;;5.10;;
4971;SDS011;2501;51.214;6.768;2023-04-01T15:09:15;5.10;;;4.70;;
4971;SDS011;2501;51.214;6.768;2023-04-01T15:11:55;6.40;;;5.85;;
4971;SDS011;2501;51.214;6.768;2023-04-01T15:14:37;8.40;;;7.60;;
4971;SDS011;2501;51.214;6.768;2023-04-01T15:17:29;5.32;;;4.72;;
4971;SDS011;2501;51.214;6.768;2023-04-01T15:23:27;5.60;;;5.20;;
4971;SDS011;2501;51.214;6.768;2023-04-01T15:26:11;9.57;;;8.57;;
4971;SDS011;2501;51.214;6.768;2023-04-01T15:28:47;12.75;;;10.95;;
4971;SDS011;2501;51.214;6.768;2023-04-01T15:31:26;11.57;;;10.40;;
4971;SDS011;2501;51.214;6.768;2023-04-01T15:36:56;10.93;;;9.50;;
4971;SDS011;2501;51.214;6.768;2023-04-01T15:39:38;8.57;;;7.78;;
4971;SDS011;2501;51.214;6.768;2023-04-01T15:45:13;8.40;;;7.60;;
4971;SDS011;2501;51.214;6.768;2023-04-01T15:47:52;6.80;;;6.20;;
4971;SDS011;2501;51.214;6.768;2023-04-01T15:50:31;10.77;;;9.68;;
4971;SDS011;2501;51.214;6.768;2023-04-01T15:53:18;13.15;;;11.85;;
4971;SDS011;2501;51.214;6.768;2023-04-01T15:55:59;15.55;;;13.18;;
4971;SDS011;2501;51.214;6.768;2023-04-01T15:58:47;9.02;;;8.10;;
4971;SDS011;2501;51.214;6.768;2023-04-01T16:01:27;15.68;;;11.48;;
4971;SDS011;2501;51.214;6.768;2023-04-01T16:04:06;14.52;;;12.90;;
4971;SDS011;2501;51.214;6.768;2023-04-01T16:07:02;28.67;;;21.02;;
4971;SDS011;2501;51.214;6.768;2023-04-01T16:09:43;14.77;;;12.32;;
4971;SDS011;2501;51.214;6.768;2023-04-01T16:12:41;16.27;;;14.48;;
4971;SDS011;2501;51.214;6.768;2023-04-01T16:15:21;15.77;;;13.73;;
4971;SDS011;2501;51.214;6.768;2023-04-01T16:17:59;13.93;;;12.43;;
4971;SDS011;2501;51.214;6.768;2023-04-01T16:20:53;9.85;;;8.95;;
4971;SDS011;2501;51.214;6.768;2023-04-01T16:23:26;13.90;;;11.48;;
4971;SDS011;2501;51.214;6.768;2023-04-01T16:26:06;17.73;;;12.25;;
4971;SDS011;2501;51.214;6.768;2023-04-01T16:28:48;12.97;;;10.10;;
4971;SDS011;2501;51.214;6.768;2023-04-01T16:31:26;7.03;;;6.33;;
4971;SDS011;2501;51.214;6.768;2023-04-01T16:34:01;11.43;;;8.93;;
4971;SDS011;2501;51.214;6.768;2023-04-01T16:36:37;7.72;;;7.03;;
4971;SDS011;2501;51.214;6.768;2023-04-01T16:42:11;6.55;;;6.05;;
4971;SDS011;2501;51.214;6.768;2023-04-01T16:44:52;8.93;;;6.90;;
4971;SDS011;2501;51.214;6.768;2023-04-01T16:47:27;6.28;;;5.68;;
4971;SDS011;2501;51.214;6.768;2023-04-01T16:49:59;5.70;;;5.28;;
4971;SDS011;2501;51.214;6.768;2023-04-01T16:52:40;5.18;;;4.78;;
4971;SDS011;2501;51.214;6.768;2023-04-01T16:55:19;5.65;;;5.13;;
4971;SDS011;2501;51.214;6.768;2023-04-01T16:57:50;9.55;;;5.32;;
4971;SDS011;2501;51.214;6.768;2023-04-01T17:00:26;6.63;;;5.90;;
4971;SDS011;2501;51.214;6.768;2023-04-01T17:02:58;12.88;;;9.10;;
4971;SDS011;2501;51.214;6.768;2023-04-01T17:05:44;17.40;;;11.75;;
4971;SDS011;2501;51.214;6.768;2023-04-01T17:08:23;8.75;;;6.75;;
4971;SDS011;2501;51.214;6.768;2023-04-01T17:11:03;9.07;;;8.05;;
4971;SDS011;2501;51.214;6.768;2023-04-01T17:13:38;7.45;;;6.75;;
4971;SDS011;2501;51.214;6.768;2023-04-01T17:16:24;8.52;;;6.95;;
4971;SDS011;2501;51.214;6.768;2023-04-01T17:19:14;7.20;;;6.50;;
4971;SDS011;2501;51.214;6.768;2023-04-01T17:21:55;6.55;;;5.95;;
4971;SDS011;2501;51.214;6.768;2023-04-01T17:24:41;7.47;;;6.77;;
4971;SDS011;2501;51.214;6.768;2023-04-01T17:27:29;7.25;;;6.60;;
4971;SDS011;2501;51.214;6.768;2023-04-01T17:30:19;7.63;;;4.88;;
4971;SDS011;2501;51.214;6.768;2023-04-01T17:33:04;7.70;;;7.00;;
4971;SDS011;2501;51.214;6.768;2023-04-01T17:35:42;6.80;;;6.20;;
4971;SDS011;2501;51.214;6.768;2023-04-01T17:38:21;5.32;;;4.85;;
4971;SDS011;2501;51.214;6.768;2023-04-01T17:41:01;5.20;;;4.70;;
4971;SDS011;2501;51.214;6.768;2023-04-01T17:43:37;5.78;;;5.20;;
4971;SDS011;2501;51.214;6.768;2023-04-01T17:46:21;4.80;;;4.40;;
4971;SDS011;2501;51.214;6.768;2023-04-01T17:49:00;5.07;;;4.68;;
4971;SDS011;2501;51.214;6.768;2023-04-01T17:51:53;5.18;;;4.78;;
4971;SDS011;2501;51.214;6.768;2023-04-01T17:54:30;12.25;;;10.93;;
4971;SDS011;2501;51.214;6.768;2023-04-01T17:57:09;11.90;;;10.60;;
4971;SDS011;2501;51.214;6.768;2023-04-01T17:59:56;12.75;;;9.77;;
4971;SDS011;2501;51.214;6.768;2023-04-01T18:02:31;16.30;;;13.15;;
4971;SDS011;2501;51.214;6.768;2023-04-01T18:05:17;18.05;;;14.50;;
4971;SDS011;2501;51.214;6.768;2023-04-01T18:07:57;15.07;;;11.82;;